createdAt,value
2019-04-03T00:00:14.031Z,11.40
2019-04-03T00:02:42.617Z,11.30
2019-04-03T00:05:11.319Z,11.30
2019-04-03T00:07:39.766Z,11.20
2019-04-03T00:10:09.037Z,11.20
2019-04-03T00:12:40.335Z,11.10
2019-04-03T00:15:08.310Z,11.20
2019-04-03T00:17:36.753Z,11.20
2019-04-03T00:20:07.727Z,11.20
2019-04-03T00:22:55.503Z,11.20
2019-04-03T00:25:23.944Z,11.20
2019-04-03T00:27:52.894Z,11.20
2019-04-03T00:30:22.730Z,11.10
2019-04-03T00:32:53.187Z,11.10
2019-04-03T00:35:23.267Z,11.00
2019-04-03T00:37:53.607Z,10.90
2019-04-03T00:40:22.697Z,10.90
2019-04-03T00:42:54.046Z,10.90
2019-04-03T00:45:24.210Z,10.90
2019-04-03T00:47:55.107Z,10.90
2019-04-03T00:50:22.833Z,10.90
2019-04-03T00:52:51.270Z,10.90
2019-04-03T00:55:19.708Z,10.90
2019-04-03T00:57:48.165Z,10.90
2019-04-03T01:00:17.823Z,10.90
2019-04-03T01:02:46.262Z,10.90
2019-04-03T01:05:14.773Z,10.90
2019-04-03T01:07:43.201Z,10.80
2019-04-03T01:10:12.180Z,10.70
2019-04-03T01:12:40.637Z,10.70
2019-04-03T01:15:09.573Z,10.70
2019-04-03T01:17:38.010Z,10.70
2019-04-03T01:20:06.978Z,10.70
2019-04-03T01:22:37.354Z,10.70
2019-04-03T01:25:08.259Z,10.60
2019-04-03T01:27:37.111Z,10.70
2019-04-03T01:30:06.922Z,10.70
2019-04-03T01:32:35.353Z,10.60
2019-04-03T01:35:04.712Z,10.60
2019-04-03T01:37:33.388Z,10.60
2019-04-03T01:40:02.049Z,10.60
2019-04-03T01:42:30.690Z,10.70
2019-04-03T01:44:59.202Z,10.70
2019-04-03T01:47:28.167Z,10.70
2019-04-03T01:49:58.765Z,10.60
2019-04-03T01:52:27.999Z,10.70
2019-04-03T01:54:56.828Z,10.70
2019-04-03T01:57:25.274Z,10.60
2019-04-03T01:59:53.816Z,10.70
2019-04-03T02:02:22.936Z,10.70
2019-04-03T02:04:51.486Z,10.70
2019-04-03T02:07:19.917Z,10.70
2019-04-03T02:09:48.361Z,10.70
2019-04-03T02:12:17.968Z,10.70
2019-04-03T02:14:46.959Z,10.70
2019-04-03T02:17:15.390Z,10.60
2019-04-03T02:19:43.829Z,10.60
2019-04-03T02:22:12.262Z,10.60
2019-04-03T02:24:41.042Z,10.60
2019-04-03T02:27:09.721Z,10.70
2019-04-03T02:29:39.786Z,10.70
2019-04-03T02:32:08.402Z,10.60
2019-04-03T02:34:36.986Z,10.60
2019-04-03T02:37:05.645Z,10.60
2019-04-03T02:39:34.078Z,10.50
2019-04-03T02:42:02.790Z,10.40
2019-04-03T02:44:31.335Z,10.40
2019-04-03T02:47:01.428Z,10.40
2019-04-03T02:49:30.045Z,10.40
2019-04-03T02:51:58.978Z,10.40
2019-04-03T02:54:30.221Z,10.30
2019-04-03T02:56:59.243Z,10.30
2019-04-03T02:59:27.773Z,10.30
2019-04-03T03:01:58.442Z,10.30
2019-04-03T03:04:27.158Z,10.30
2019-04-03T03:06:55.962Z,10.40
2019-04-03T03:09:24.880Z,10.30
2019-04-03T03:11:56.106Z,10.30
2019-04-03T03:14:23.995Z,10.30
2019-04-03T03:16:53.231Z,10.20
2019-04-03T03:19:23.460Z,10.20
2019-04-03T03:21:54.982Z,10.20
2019-04-03T03:24:24.500Z,10.20
2019-04-03T03:26:55.082Z,10.10
2019-04-03T03:29:26.787Z,10.10
2019-04-03T03:32:08.482Z,10.10
2019-04-03T03:34:48.204Z,10.10
2019-04-03T03:37:00.002Z,10.00
2019-04-03T03:39:28.111Z,10.00
2019-04-03T03:41:58.796Z,10.00
2019-04-03T03:44:28.425Z,9.90
2019-04-03T03:47:01.111Z,10.00
2019-04-03T03:49:29.796Z,10.00
2019-04-03T03:52:02.690Z,9.90
2019-04-03T03:54:29.941Z,10.00
2019-04-03T03:56:59.145Z,10.00
2019-04-03T03:59:27.931Z,10.00
2019-04-03T04:01:56.451Z,10.00
2019-04-03T04:04:25.159Z,10.10
2019-04-03T04:06:53.926Z,10.10
2019-04-03T04:09:22.482Z,10.10
2019-04-03T04:11:51.698Z,10.10
2019-04-03T04:14:22.802Z,10.10
2019-04-03T04:16:50.298Z,10.00
2019-04-03T04:19:19.288Z,10.00
2019-04-03T04:21:48.150Z,10.00
2019-04-03T04:24:17.899Z,9.90
2019-04-03T04:26:47.398Z,9.90
2019-04-03T04:29:17.457Z,9.90
2019-04-03T04:31:45.946Z,9.90
2019-04-03T04:34:14.420Z,9.90
2019-04-03T04:36:42.853Z,9.90
2019-04-03T04:39:11.282Z,9.90
2019-04-03T04:41:39.709Z,9.90
2019-04-03T04:44:09.997Z,10.00
2019-04-03T04:46:38.318Z,9.90
2019-04-03T04:49:06.937Z,9.90
2019-04-03T04:51:35.374Z,9.90
2019-04-03T04:54:03.810Z,9.90
2019-04-03T04:56:32.239Z,9.90
2019-04-03T04:59:00.818Z,9.90
2019-04-03T05:01:29.454Z,9.90
2019-04-03T05:03:57.882Z,9.90
2019-04-03T05:06:28.642Z,9.80
2019-04-03T05:08:58.009Z,9.80
2019-04-03T05:11:26.457Z,9.80
2019-04-03T05:13:56.158Z,9.80
2019-04-03T05:16:25.743Z,9.80
2019-04-03T05:18:54.164Z,9.80
2019-04-03T05:21:22.873Z,9.80
2019-04-03T05:23:51.485Z,9.80
2019-04-03T05:26:21.392Z,10.00
2019-04-03T05:28:57.201Z,10.20
2019-04-03T05:31:21.033Z,10.30
2019-04-03T05:33:49.499Z,10.30
2019-04-03T05:36:18.356Z,10.40
2019-04-03T05:38:46.951Z,10.60
2019-04-03T05:41:15.390Z,10.60
2019-04-03T05:43:43.829Z,10.50
2019-04-03T05:46:12.464Z,10.40
2019-04-03T05:48:41.427Z,10.30
2019-04-03T05:51:10.167Z,10.30
2019-04-03T05:53:39.170Z,10.20
2019-04-03T05:56:07.761Z,10.10
2019-04-03T05:58:36.381Z,10.10
2019-04-03T06:01:06.972Z,10.20
2019-04-03T06:03:42.287Z,10.10
2019-04-03T06:06:05.622Z,10.10
2019-04-03T06:08:35.272Z,10.10
2019-04-03T06:11:07.538Z,10.10
2019-04-03T06:13:34.032Z,10.20
2019-04-03T06:16:03.412Z,10.30
2019-04-03T06:18:32.532Z,10.30
2019-04-03T06:21:00.967Z,10.30
2019-04-03T06:23:30.095Z,10.40
2019-04-03T06:26:00.714Z,10.30
2019-04-03T06:28:29.017Z,10.40
2019-04-03T06:30:57.902Z,10.40
2019-04-03T06:33:26.721Z,10.50
2019-04-03T06:35:55.153Z,10.50
2019-04-03T06:38:24.884Z,10.60
2019-04-03T06:40:53.973Z,10.80
2019-04-03T06:43:22.619Z,11.00
2019-04-03T06:45:51.602Z,11.00
2019-04-03T06:48:20.333Z,10.90
2019-04-03T06:50:48.771Z,10.90
2019-04-03T06:53:17.576Z,10.90
2019-04-03T06:55:46.025Z,10.90
2019-04-03T06:58:14.546Z,10.90
2019-04-03T07:00:42.986Z,11.00
2019-04-03T07:03:11.674Z,11.00
2019-04-03T07:05:41.640Z,11.10
2019-04-03T07:08:10.534Z,11.10
2019-04-03T07:10:40.255Z,11.10
2019-04-03T07:13:09.096Z,11.20
2019-04-03T07:15:37.661Z,11.20
2019-04-03T07:18:06.709Z,11.20
2019-04-03T07:20:35.423Z,11.20
2019-04-03T07:23:04.717Z,11.30
2019-04-03T07:25:33.926Z,11.30
2019-04-03T07:28:03.236Z,11.30
2019-04-03T07:30:32.277Z,11.40
2019-04-03T07:33:00.702Z,11.30
2019-04-03T07:35:29.329Z,11.30
2019-04-03T07:37:58.149Z,11.40
2019-04-03T07:40:26.685Z,11.40
2019-04-03T07:42:56.277Z,11.40
2019-04-03T07:45:25.339Z,11.50
2019-04-03T07:47:53.841Z,11.50
2019-04-03T07:50:22.474Z,11.60
2019-04-03T07:52:50.965Z,11.70
2019-04-03T07:55:19.412Z,11.70
2019-04-03T07:57:47.914Z,11.70
2019-04-03T08:00:17.285Z,11.70
2019-04-03T08:02:48.653Z,11.70
2019-04-03T08:05:15.889Z,11.80
2019-04-03T08:07:44.317Z,11.80
2019-04-03T08:10:13.136Z,11.80
2019-04-03T08:12:41.794Z,11.80
2019-04-03T08:15:13.514Z,11.80
2019-04-03T08:17:41.590Z,11.80
2019-04-03T08:20:10.339Z,11.90
2019-04-03T08:22:39.109Z,11.90
2019-04-03T08:25:27.042Z,12.00
2019-04-03T08:27:55.787Z,11.90
2019-04-03T08:30:24.850Z,11.90
2019-04-03T08:32:53.282Z,12.00
2019-04-03T08:35:24.086Z,12.00
2019-04-03T08:37:51.891Z,12.10
2019-04-03T08:40:39.673Z,12.10
2019-04-03T08:43:08.103Z,12.20
2019-04-03T08:45:38.406Z,12.20
2019-04-03T08:48:07.292Z,12.30
2019-04-03T08:50:36.039Z,12.30
2019-04-03T08:53:07.410Z,12.30
2019-04-03T08:55:35.236Z,12.30
2019-04-03T08:58:03.669Z,12.30
2019-04-03T09:00:32.789Z,12.40
2019-04-03T09:03:03.636Z,12.50
2019-04-03T09:05:31.970Z,12.60
2019-04-03T09:08:00.420Z,12.60
2019-04-03T09:10:31.571Z,12.60
2019-04-03T09:12:59.017Z,12.80
2019-04-03T09:15:28.309Z,12.80
2019-04-03T09:17:57.513Z,12.70
2019-04-03T09:20:25.945Z,12.70
2019-04-03T09:22:54.549Z,12.70
2019-04-03T09:25:23.105Z,12.70
2019-04-03T09:27:51.541Z,12.70
2019-04-03T09:30:21.680Z,12.80
2019-04-03T09:32:50.120Z,12.70
2019-04-03T09:35:18.769Z,12.80
2019-04-03T09:37:47.219Z,12.70
2019-04-03T09:40:17.905Z,12.70
2019-04-03T09:42:46.701Z,12.60
2019-04-03T09:45:15.675Z,12.40
2019-04-03T09:47:44.202Z,12.40
2019-04-03T09:50:16.855Z,12.30
2019-04-03T09:52:49.368Z,12.20
2019-04-03T09:55:15.728Z,12.10
2019-04-03T09:57:44.431Z,12.00
2019-04-03T10:00:15.152Z,11.90
2019-04-03T10:02:43.610Z,11.70
2019-04-03T10:05:12.101Z,11.70
2019-04-03T10:07:40.635Z,11.70
2019-04-03T10:10:09.916Z,11.70
2019-04-03T10:12:38.365Z,11.70
2019-04-03T10:15:08.196Z,11.70
2019-04-03T10:17:38.368Z,11.70
2019-04-03T10:20:09.084Z,11.60
2019-04-03T10:22:37.994Z,11.50
2019-04-03T10:25:08.254Z,11.30
2019-04-03T10:27:37.026Z,11.30
2019-04-03T10:30:12.179Z,11.20
2019-04-03T10:32:40.678Z,11.20
2019-04-03T10:35:09.954Z,11.20
2019-04-03T10:37:38.405Z,11.20
2019-04-03T10:40:08.308Z,11.20
2019-04-03T10:42:36.912Z,11.20
2019-04-03T10:45:08.183Z,11.20
2019-04-03T10:47:42.826Z,11.40
2019-04-03T10:50:08.853Z,11.20
2019-04-03T10:52:37.454Z,11.30
2019-04-03T10:55:07.979Z,11.30
2019-04-03T10:57:38.240Z,11.30
2019-04-03T11:00:10.207Z,11.30
2019-04-03T11:02:39.327Z,11.20
2019-04-03T11:05:08.953Z,11.40
2019-04-03T11:07:37.401Z,11.40
2019-04-03T11:10:08.794Z,11.40
2019-04-03T11:12:37.716Z,11.40
2019-04-03T11:15:11.699Z,11.40
2019-04-03T11:17:40.593Z,11.40
2019-04-03T11:20:11.026Z,11.30
2019-04-03T11:22:42.091Z,11.40
2019-04-03T11:25:13.978Z,11.40
2019-04-03T11:27:44.571Z,11.40
2019-04-03T11:30:17.088Z,11.50
2019-04-03T11:32:43.928Z,11.40
2019-04-03T11:35:13.106Z,11.50
2019-04-03T11:37:41.566Z,11.50
2019-04-03T11:40:11.727Z,11.70
2019-04-03T11:42:40.397Z,11.70
2019-04-03T11:45:09.522Z,11.70
2019-04-03T11:47:38.132Z,11.70
2019-04-03T11:50:08.031Z,11.50
2019-04-03T11:52:37.042Z,11.60
2019-04-03T11:55:10.008Z,11.70
2019-04-03T11:57:37.441Z,11.80
2019-04-03T12:00:11.065Z,11.80
2019-04-03T12:02:40.372Z,11.80
2019-04-03T12:05:10.193Z,11.70
2019-04-03T12:07:38.710Z,11.80
2019-04-03T12:10:08.218Z,11.70
2019-04-03T12:12:37.093Z,11.60
2019-04-03T12:15:08.623Z,11.60
2019-04-03T12:17:37.410Z,11.60
2019-04-03T12:20:09.236Z,11.70
2019-04-03T12:22:37.880Z,11.70
2019-04-03T12:25:07.665Z,11.70
2019-04-03T12:27:36.636Z,11.70
2019-04-03T12:30:09.414Z,11.80
2019-04-03T12:32:42.983Z,11.80
2019-04-03T12:35:09.838Z,11.70
2019-04-03T12:37:38.731Z,11.70
2019-04-03T12:40:08.419Z,11.70
2019-04-03T12:42:36.910Z,11.70
2019-04-03T12:45:07.520Z,11.80
2019-04-03T12:47:36.171Z,11.90
2019-04-03T12:50:07.648Z,11.90
2019-04-03T12:52:36.582Z,12.10
2019-04-03T12:55:06.970Z,12.20
2019-04-03T12:57:38.502Z,12.20
2019-04-03T13:00:10.852Z,12.40
2019-04-03T13:02:39.012Z,12.50
2019-04-03T13:05:08.466Z,12.50
2019-04-03T13:07:37.989Z,12.40
2019-04-03T13:10:09.035Z,12.50
2019-04-03T13:12:37.512Z,12.70
2019-04-03T13:15:10.620Z,12.70
2019-04-03T13:17:42.381Z,12.70
2019-04-03T13:20:10.419Z,12.60
2019-04-03T13:22:39.960Z,12.70
2019-04-03T13:25:09.930Z,12.90
2019-04-03T13:27:38.358Z,13.00
2019-04-03T13:30:12.006Z,13.20
2019-04-03T13:32:41.131Z,13.20
2019-04-03T13:35:10.501Z,13.20
2019-04-03T13:37:38.938Z,13.10
2019-04-03T13:40:09.299Z,13.00
2019-04-03T13:42:38.620Z,13.00
2019-04-03T13:45:09.563Z,12.90
2019-04-03T13:47:41.136Z,12.80
2019-04-03T13:50:09.965Z,12.80
2019-04-03T13:52:42.579Z,12.80
2019-04-03T13:55:09.758Z,12.70
2019-04-03T13:57:38.611Z,12.70
2019-04-03T14:00:18.270Z,12.70
2019-04-03T14:02:40.107Z,12.70
2019-04-03T14:05:09.204Z,12.70
2019-04-03T14:07:40.496Z,12.80
2019-04-03T14:10:10.276Z,12.80
2019-04-03T14:12:43.227Z,12.80
2019-04-03T14:15:09.682Z,12.80
2019-04-03T14:17:38.650Z,12.90
2019-04-03T14:20:08.949Z,12.80
2019-04-03T14:22:37.475Z,12.80
2019-04-03T14:25:17.897Z,12.70
2019-04-03T14:27:38.350Z,12.70
2019-04-03T14:30:11.905Z,12.50
2019-04-03T14:32:41.186Z,12.50
2019-04-03T14:35:39.133Z,12.70
2019-04-03T14:37:41.860Z,12.80
2019-04-03T14:40:12.904Z,12.80
2019-04-03T14:42:41.189Z,12.90
2019-04-03T14:45:13.347Z,12.80
2019-04-03T14:47:40.731Z,12.80
2019-04-03T14:50:10.713Z,12.80
2019-04-03T14:52:39.786Z,12.90
2019-04-03T14:55:19.808Z,13.00
2019-04-03T14:57:39.347Z,13.00
2019-04-03T15:00:24.936Z,13.00
2019-04-03T15:02:41.441Z,12.90
2019-04-03T15:05:10.786Z,13.00
2019-04-03T15:07:40.357Z,13.00
2019-04-03T15:10:10.094Z,13.00
2019-04-03T15:12:39.977Z,12.90
2019-04-03T15:15:09.892Z,12.90
2019-04-03T15:17:38.902Z,12.80
2019-04-03T15:20:12.757Z,12.70
2019-04-03T15:22:41.418Z,12.80
2019-04-03T15:25:10.830Z,13.00
2019-04-03T15:27:39.422Z,12.90
2019-04-03T15:30:11.449Z,13.00
2019-04-03T15:32:40.171Z,13.00
2019-04-03T15:35:13.613Z,13.10
2019-04-03T15:37:43.028Z,13.20
2019-04-03T15:40:12.975Z,13.50
2019-04-03T15:42:41.973Z,13.50
2019-04-03T15:45:11.354Z,13.40
2019-04-03T15:47:44.952Z,13.40
2019-04-03T15:50:12.067Z,13.40
2019-04-03T15:52:43.473Z,13.40
2019-04-03T15:55:11.834Z,13.40
2019-04-03T15:57:40.845Z,13.60
2019-04-03T16:00:15.734Z,13.80
2019-04-03T16:02:46.392Z,13.50
2019-04-03T16:05:16.676Z,13.60
2019-04-03T16:07:45.442Z,13.70
2019-04-03T16:10:14.418Z,13.60
2019-04-03T16:12:43.876Z,13.60
2019-04-03T16:15:13.121Z,13.60
2019-04-03T16:17:42.001Z,13.50
2019-04-03T16:20:11.597Z,13.40
2019-04-03T16:22:40.236Z,13.50
2019-04-03T16:25:09.305Z,13.50
2019-04-03T16:27:38.016Z,13.60
2019-04-03T16:30:09.683Z,13.60
2019-04-03T16:32:38.956Z,13.50
2019-04-03T16:35:08.722Z,13.50
2019-04-03T16:37:37.447Z,13.50
2019-04-03T16:40:07.925Z,13.60
2019-04-03T16:42:38.226Z,13.50
2019-04-03T16:45:09.536Z,13.50
2019-04-03T16:47:39.007Z,13.40
2019-04-03T16:50:10.284Z,13.40
2019-04-03T16:52:38.859Z,13.40
2019-04-03T16:55:08.283Z,13.30
2019-04-03T16:57:37.158Z,13.30
2019-04-03T17:00:09.486Z,12.00
2019-04-03T17:02:38.548Z,13.40
2019-04-03T17:05:10.506Z,13.40
2019-04-03T17:07:38.436Z,13.40
2019-04-03T17:10:09.419Z,13.50
2019-04-03T17:12:38.006Z,13.40
2019-04-03T17:15:08.757Z,13.40
2019-04-03T17:17:37.557Z,13.40
2019-04-03T17:20:10.425Z,13.40
2019-04-03T17:22:40.793Z,13.20
2019-04-03T17:25:10.694Z,13.10
2019-04-03T17:27:39.377Z,13.00
2019-04-03T17:30:10.064Z,13.00
2019-04-03T17:32:39.985Z,12.90
2019-04-03T17:35:08.996Z,12.90
2019-04-03T17:37:37.426Z,12.80
2019-04-03T17:40:08.952Z,12.80
2019-04-03T17:42:39.241Z,12.80
2019-04-03T17:45:08.362Z,12.80
2019-04-03T17:47:36.786Z,12.70
2019-04-03T17:50:07.293Z,12.70
2019-04-03T17:52:36.541Z,12.70
2019-04-03T17:55:11.180Z,12.70
2019-04-03T17:57:40.092Z,12.60
2019-04-03T18:00:20.498Z,12.70
2019-04-03T18:02:48.095Z,12.60
2019-04-03T18:05:17.223Z,12.60
2019-04-03T18:07:45.662Z,12.60
2019-04-03T18:10:14.651Z,12.60
2019-04-03T18:12:45.482Z,12.60
2019-04-03T18:15:13.786Z,12.60
2019-04-03T18:17:42.225Z,12.50
2019-04-03T18:20:13.281Z,12.50
2019-04-03T18:22:44.828Z,12.50
2019-04-03T18:25:14.253Z,12.50
2019-04-03T18:27:42.756Z,12.50
2019-04-03T18:30:12.678Z,12.50
2019-04-03T18:32:41.297Z,12.50
2019-04-03T18:35:10.693Z,12.50
2019-04-03T18:37:40.864Z,12.50
2019-04-03T18:40:14.182Z,12.60
2019-04-03T18:42:41.320Z,12.50
2019-04-03T18:45:10.304Z,12.40
2019-04-03T18:47:41.692Z,12.20
2019-04-03T18:50:10.182Z,12.20
2019-04-03T18:52:39.457Z,12.20
2019-04-03T18:55:08.741Z,12.10
2019-04-03T18:57:37.473Z,12.10
2019-04-03T19:00:10.422Z,12.10
2019-04-03T19:02:38.883Z,12.00
2019-04-03T19:05:10.117Z,12.00
2019-04-03T19:07:38.846Z,12.10
2019-04-03T19:10:08.264Z,12.00
2019-04-03T19:12:37.313Z,12.00
2019-04-03T19:15:08.100Z,11.90
2019-04-03T19:17:36.608Z,11.90
2019-04-03T19:20:10.881Z,12.00
2019-04-03T19:22:37.337Z,12.10
2019-04-03T19:25:09.509Z,12.00
2019-04-03T19:27:38.331Z,11.90
2019-04-03T19:30:07.963Z,12.00
2019-04-03T19:32:36.570Z,12.10
2019-04-03T19:35:09.551Z,12.10
2019-04-03T19:37:37.939Z,12.10
2019-04-03T19:40:09.717Z,12.00
2019-04-03T19:42:38.954Z,11.90
2019-04-03T19:45:09.133Z,11.80
2019-04-03T19:47:37.707Z,11.70
2019-04-03T19:50:08.679Z,11.50
2019-04-03T19:52:39.444Z,11.40
2019-04-03T19:55:08.514Z,11.50
2019-04-03T19:57:36.959Z,11.60
2019-04-03T20:00:07.109Z,11.60
2019-04-03T20:02:37.791Z,11.60
2019-04-03T20:05:07.849Z,11.60
2019-04-03T20:07:36.960Z,11.70
2019-04-03T20:10:08.603Z,11.70
2019-04-03T20:12:37.725Z,11.60
2019-04-03T20:15:09.005Z,11.50
2019-04-03T20:17:37.523Z,11.40
2019-04-03T20:20:07.371Z,11.40
2019-04-03T20:22:37.420Z,11.40
2019-04-03T20:25:05.970Z,11.50
2019-04-03T20:27:34.517Z,11.60
2019-04-03T20:30:05.165Z,11.50
2019-04-03T20:32:33.600Z,11.40
2019-04-03T20:35:02.075Z,11.20
2019-04-03T20:37:30.573Z,11.20
2019-04-03T20:40:00.047Z,11.10
2019-04-03T20:42:29.140Z,11.10
2019-04-03T20:44:57.578Z,11.10
2019-04-03T20:47:27.025Z,11.20
2019-04-03T20:49:56.174Z,11.10
2019-04-03T20:52:24.602Z,11.10
2019-04-03T20:54:53.770Z,11.00
2019-04-03T20:57:22.575Z,10.90
2019-04-03T20:59:58.515Z,10.90
2019-04-03T21:02:21.318Z,10.70
2019-04-03T21:04:49.804Z,10.80
2019-04-03T21:07:18.242Z,10.70
2019-04-03T21:09:47.985Z,10.60
2019-04-03T21:12:16.407Z,10.60
2019-04-03T21:14:47.414Z,10.50
2019-04-03T21:17:15.031Z,10.50
2019-04-03T21:19:43.469Z,10.50
2019-04-03T21:22:11.903Z,10.60
2019-04-03T21:24:41.029Z,10.40
2019-04-03T21:27:09.485Z,10.40
2019-04-03T21:29:37.969Z,10.50
2019-04-03T21:32:06.401Z,10.60
2019-04-03T21:34:54.183Z,10.60
2019-04-03T21:37:22.797Z,10.70
2019-04-03T21:39:51.233Z,10.50
2019-04-03T21:42:19.671Z,10.60
2019-04-03T21:44:48.150Z,10.70
2019-04-03T21:47:16.580Z,10.70
2019-04-03T21:49:47.407Z,10.60
2019-04-03T21:52:15.175Z,10.60
2019-04-03T21:54:43.609Z,10.60
2019-04-03T21:57:12.049Z,10.70
2019-04-03T21:59:41.696Z,10.70
2019-04-03T22:02:10.937Z,10.80
2019-04-03T22:04:39.373Z,10.70
2019-04-03T22:07:07.813Z,10.60
2019-04-03T22:09:36.248Z,10.60
2019-04-03T22:12:06.006Z,10.60
2019-04-03T22:14:35.129Z,10.60
2019-04-03T22:17:04.953Z,10.70
2019-04-03T22:19:33.393Z,10.60
2019-04-03T22:22:03.074Z,10.60
2019-04-03T22:24:32.014Z,10.70
2019-04-03T22:27:00.453Z,10.80
2019-04-03T22:29:28.882Z,10.70
2019-04-03T22:31:57.323Z,10.80
2019-04-03T22:34:25.931Z,10.90
2019-04-03T22:36:54.371Z,10.90
2019-04-03T22:39:22.988Z,10.70
2019-04-03T22:41:51.497Z,10.70
2019-04-03T22:44:20.057Z,10.70
2019-04-03T22:46:48.495Z,10.80
2019-04-03T22:49:16.916Z,10.80
2019-04-03T22:51:45.352Z,10.70
2019-04-03T22:54:13.784Z,10.70
2019-04-03T22:57:02.569Z,10.70
2019-04-03T22:59:31.001Z,10.90
2019-04-03T23:02:01.354Z,10.90
2019-04-03T23:04:29.713Z,10.90
2019-04-03T23:06:58.152Z,10.90
2019-04-03T23:09:26.583Z,10.70
2019-04-03T23:11:55.077Z,10.60
2019-04-03T23:14:23.633Z,10.70
2019-04-03T23:16:52.065Z,10.60
2019-04-03T23:19:20.507Z,10.60
2019-04-03T23:21:49.078Z,10.60
2019-04-03T23:24:17.515Z,10.60
2019-04-03T23:26:46.041Z,10.90
2019-04-03T23:29:14.593Z,10.70
2019-04-03T23:31:45.029Z,10.80
2019-04-03T23:34:13.435Z,10.60
2019-04-03T23:36:41.867Z,10.30
2019-04-03T23:39:10.329Z,10.40
2019-04-03T23:41:38.765Z,10.40
2019-04-03T23:44:07.225Z,10.40
2019-04-03T23:46:37.689Z,10.30
2019-04-03T23:49:06.128Z,10.30
2019-04-03T23:51:34.565Z,10.20
2019-04-03T23:54:03.363Z,10.00
2019-04-03T23:56:32.111Z,9.80
2019-04-03T23:59:00.550Z,9.60
